Time;durP1;ratioP1;P1;durP2;ratioP2;P2;SDS_P1;SDS_P2;PMS_P1;PMS_P2;Temp;Humidity;BMP_temperature;BMP_pressure;BME280_temperature;BME280_humidity;BME280_pressure;Samples;Min_cycle;Max_cycle;Signal;HPM_P1;HPM_P2
2023/01/06 00:02:24;;;;;;;26.30;19.03;;;;;;;6.59;89.70;95231.69;5096651;28;20450;-87
2023/01/06 00:04:52;;;;;;;35.80;22.43;;;;;;;6.73;89.36;95247.31;5095894;28;20955;-86
2023/01/06 00:07:19;;;;;;;36.30;19.90;;;;;;;6.85;89.20;95249.13;5096258;28;20510;-87
2023/01/06 00:09:46;;;;;;;27.50;17.13;;;;;;;6.91;88.50;95258.31;5095615;28;20986;-87
2023/01/06 00:12:13;;;;;;;28.67;16.53;;;;;;;6.88;88.42;95255.91;5095793;28;21025;-85
2023/01/06 00:14:41;;;;;;;22.00;14.90;;;;;;;6.87;89.50;95257.69;5096071;28;20452;-87
2023/01/06 00:17:08;;;;;;;29.03;18.30;;;;;;;7.16;88.08;95266.22;5096076;28;20943;-87
2023/01/06 00:19:35;;;;;;;24.90;13.80;;;;;;;7.27;87.60;95271.59;5095988;28;20435;-87
2023/01/06 00:22:04;;;;;;;23.83;16.00;;;;;;;7.37;87.43;95271.81;5095814;28;20434;-87
2023/01/06 00:24:32;;;;;;;21.60;13.93;;;;;;;7.51;87.39;95289.16;5095707;28;20518;-87
2023/01/06 00:26:58;;;;;;;24.33;16.67;;;;;;;7.58;86.51;95283.47;5096320;28;20448;-87
2023/01/06 00:29:25;;;;;;;24.97;15.10;;;;;;;7.47;86.78;95293.75;5095919;28;20459;-87
2023/01/06 00:31:52;;;;;;;24.07;14.77;;;;;;;7.60;86.27;95293.81;5094801;28;20483;-87
2023/01/06 00:34:19;;;;;;;22.27;15.37;;;;;;;7.69;86.08;95299.25;5095673;28;20465;-87
2023/01/06 00:36:46;;;;;;;20.97;13.90;;;;;;;7.80;85.86;95305.50;5095530;28;20848;-87
2023/01/06 00:39:14;;;;;;;22.77;15.17;;;;;;;7.84;85.61;95301.78;5095451;28;20459;-87
2023/01/06 00:44:25;;;;;;;22.80;15.87;;;;;;;7.96;85.28;95286.09;5095132;28;20418;-87
2023/01/06 00:46:52;;;;;;;20.53;13.60;;;;;;;7.95;85.39;95287.03;5095099;28;20459;-87
2023/01/06 00:49:19;;;;;;;21.07;13.20;;;;;;;7.98;85.61;95292.03;5095127;28;20494;-87
2023/01/06 00:51:46;;;;;;;21.47;13.20;;;;;;;7.97;85.64;95293.00;5095119;28;20888;-87
2023/01/06 00:54:15;;;;;;;17.50;13.07;;;;;;;8.10;85.29;95303.47;5095120;28;20439;-87
2023/01/06 00:56:47;;;;;;;19.97;13.20;;;;;;;8.22;85.36;95307.00;5095585;28;20455;-87
2023/01/06 00:59:20;;;;;;;20.93;14.13;;;;;;;8.25;85.08;95301.56;5095482;28;20451;-88
2023/01/06 01:01:48;;;;;;;17.57;11.67;;;;;;;8.25;85.48;95301.56;5095472;28;20496;-88
2023/01/06 01:04:16;;;;;;;20.23;11.70;;;;;;;8.18;85.72;95302.91;5095092;28;21231;-87
2023/01/06 01:06:44;;;;;;;18.10;11.70;;;;;;;8.20;87.04;95296.66;5094927;28;20846;-86
2023/01/06 01:09:16;;;;;;;21.77;12.30;;;;;;;8.32;86.91;95287.09;5094939;28;20470;-88
2023/01/06 01:14:26;;;;;;;14.37;8.93;;;;;;;8.50;88.04;95291.09;5094921;28;20411;-87
2023/01/06 01:16:53;;;;;;;12.07;8.50;;;;;;;8.63;87.90;95297.13;5095385;28;20452;-88
2023/01/06 01:19:20;;;;;;;7.90;5.97;;;;;;;8.75;88.03;95292.81;5095244;28;20806;-88
2023/01/06 01:21:48;;;;;;;9.13;7.67;;;;;;;8.90;87.35;95296.09;5094999;28;20444;-88
2023/01/06 01:24:16;;;;;;;7.53;6.10;;;;;;;9.01;87.33;95290.94;5094711;28;20447;-89
2023/01/06 01:26:43;;;;;;;15.17;7.43;;;;;;;9.12;86.33;95292.78;5095154;28;20908;-88
2023/01/06 01:29:11;;;;;;;9.90;7.07;;;;;;;9.18;86.49;95302.81;5094729;28;20447;-88
2023/01/06 01:31:38;;;;;;;14.23;8.07;;;;;;;9.23;86.28;95288.41;5094781;28;20577;-88
2023/01/06 01:34:05;;;;;;;11.10;6.30;;;;;;;9.27;85.45;95284.66;5095284;28;20914;-88
2023/01/06 01:36:32;;;;;;;12.33;6.97;;;;;;;9.31;84.84;95280.03;5094916;28;20479;-87
2023/01/06 01:39:00;;;;;;;16.67;9.30;;;;;;;9.36;84.27;95282.31;5094562;28;20455;-86
2023/01/06 01:41:29;;;;;;;8.90;6.63;;;;;;;9.41;84.97;95277.56;5094728;28;20451;-88
2023/01/06 01:44:03;;;;;;;9.97;6.67;;;;;;;9.43;84.64;95271.25;5094810;28;20451;-87
2023/01/06 01:49:54;;;;;;;7.70;5.13;;;;;;;9.50;83.46;95282.09;5089787;28;20466;-87
2023/01/06 01:52:25;;;;;;;8.47;6.13;;;;;;;9.53;83.16;95277.47;5094452;28;20452;-88
2023/01/06 01:54:55;;;;;;;7.17;5.30;;;;;;;9.58;82.69;95269.28;5094238;28;20450;-87
2023/01/06 01:57:27;;;;;;;6.80;6.10;;;;;;;9.60;82.64;95252.50;5094572;28;20467;-86
2023/01/06 01:59:55;;;;;;;10.10;6.30;;;;;;;9.66;82.43;95240.72;5094437;28;20453;-87
2023/01/06 02:02:23;;;;;;;11.10;7.47;;;;;;;9.65;82.15;95243.47;5094224;28;20469;-87
2023/01/06 02:04:54;;;;;;;8.60;6.03;;;;;;;9.69;82.13;95260.63;5094700;28;20452;-87
2023/01/06 02:07:25;;;;;;;8.30;5.43;;;;;;;9.69;81.18;95253.59;5094671;28;20491;-87
2023/01/06 02:09:59;;;;;;;5.57;4.80;;;;;;;9.69;81.63;95265.84;5094253;28;20927;-87
2023/01/06 02:12:27;;;;;;;13.47;6.70;;;;;;;9.70;81.06;95263.13;5094254;28;20998;-89
2023/01/06 02:14:53;;;;;;;7.70;5.33;;;;;;;9.72;80.68;95274.31;5094364;28;20440;-88
2023/01/06 02:17:41;;;;;;;9.40;4.87;;;;;;;9.70;80.47;95280.63;5094291;28;20436;-87
2023/01/06 02:20:41;;;;;;;8.53;5.00;;;;;;;9.69;80.50;95271.94;5093957;28;20436;-86
2023/01/06 02:23:41;;;;;;;6.77;4.80;;;;;;;9.69;80.51;95274.56;5094142;28;20497;-87
2023/01/06 02:26:37;;;;;;;8.50;6.00;;;;;;;9.69;80.11;95274.56;5094068;28;20448;-87
2023/01/06 02:29:33;;;;;;;8.10;4.30;;;;;;;9.66;80.69;95272.16;5094131;28;20503;-87
2023/01/06 02:32:13;;;;;;;5.10;4.23;;;;;;;9.70;80.40;95289.31;5093713;28;20566;-87
2023/01/06 02:34:51;;;;;;;7.70;5.63;;;;;;;9.69;80.04;95285.03;5094516;28;20834;-87
2023/01/06 02:37:33;;;;;;;5.30;4.03;;;;;;;9.73;80.04;95294.31;5094203;28;20456;-87
2023/01/06 02:40:12;;;;;;;4.13;3.83;;;;;;;9.71;79.01;95285.75;5094105;28;20453;-87
2023/01/06 02:42:45;;;;;;;3.90;3.53;;;;;;;9.71;78.88;95284.91;5094162;28;20489;-88
2023/01/06 02:45:21;;;;;;;11.13;3.97;;;;;;;9.72;78.30;95286.59;5094121;28;20440;-86
2023/01/06 02:48:00;;;;;;;6.13;4.40;;;;;;;9.71;78.51;95296.22;5094062;28;20793;-87
2023/01/06 02:50:39;;;;;;;5.93;4.20;;;;;;;9.65;77.88;95277.53;5093711;28;20875;-86
2023/01/06 02:53:15;;;;;;;4.00;3.60;;;;;;;9.64;77.78;95271.44;5094081;28;20515;-86
2023/01/06 02:55:46;;;;;;;4.90;3.97;;;;;;;9.65;77.48;95264.41;5095832;28;20797;-86
2023/01/06 02:58:21;;;;;;;3.30;2.97;;;;;;;9.64;77.25;95274.06;5097485;28;20444;-87
2023/01/06 03:01:02;;;;;;;8.00;4.10;;;;;;;9.64;77.46;95260.97;5064359;28;20444;-88
2023/01/06 03:03:34;;;;;;;5.93;4.57;;;;;;;9.60;77.74;95267.38;5097168;28;20493;-87
2023/01/06 03:06:06;;;;;;;4.90;4.10;;;;;;;9.59;77.62;95260.47;5097579;28;20835;-87
2023/01/06 03:08:33;;;;;;;7.80;4.17;;;;;;;9.56;77.96;95239.75;5097348;28;20437;-86
2023/01/06 03:11:43;;;;;;;7.50;4.30;;;;;;;9.61;78.08;95245.47;5097690;28;20513;-87
2023/01/06 03:14:18;;;;;;;4.23;3.93;;;;;;;9.61;77.39;95235.84;5100269;28;20452;-86
2023/01/06 03:16:45;;;;;;;5.27;4.33;;;;;;;9.56;77.87;95231.91;5097902;28;20821;-87
2023/01/06 03:19:17;;;;;;;5.53;4.43;;;;;;;9.46;77.43;95223.03;5097037;28;20433;-87
2023/01/06 03:21:46;;;;;;;6.47;4.20;;;;;;;9.45;77.41;95219.59;5097084;28;20445;-86
2023/01/06 03:24:15;;;;;;;6.27;4.40;;;;;;;9.42;77.97;95222.44;5097342;28;20898;-88
2023/01/06 03:26:44;;;;;;;6.33;3.93;;;;;;;9.36;78.14;95216.81;5095456;28;20448;-88
2023/01/06 03:29:14;;;;;;;5.30;3.30;;;;;;;9.38;77.73;95235.88;5097045;28;20443;-87
2023/01/06 03:31:52;;;;;;;5.87;4.70;;;;;;;9.37;77.50;95231.59;5096716;28;20521;-87
2023/01/06 03:34:35;;;;;;;4.00;3.20;;;;;;;9.36;77.38;95243.03;5097046;28;20557;-88
2023/01/06 03:37:13;;;;;;;8.90;3.93;;;;;;;9.38;76.89;95255.06;5097283;28;20432;-88
2023/01/06 03:39:58;;;;;;;4.57;3.47;;;;;;;9.38;77.37;95270.75;5096456;28;20898;-87
2023/01/06 03:45:39;;;;;;;5.00;3.17;;;;;;;9.44;76.99;95277.31;5096610;28;20424;-88
2023/01/06 03:48:12;;;;;;;5.57;4.17;;;;;;;9.45;77.50;95289.47;5097022;28;20452;-88
2023/01/06 03:50:48;;;;;;;3.67;3.30;;;;;;;9.45;76.40;95289.47;5097452;28;20476;-88
2023/01/06 03:53:26;;;;;;;6.17;5.03;;;;;;;9.44;76.23;95296.50;5096644;28;20972;-88
2023/01/06 03:56:00;;;;;;;6.00;4.67;;;;;;;9.40;77.21;95287.19;5096747;28;20437;-88
2023/01/06 03:58:29;;;;;;;6.97;4.97;;;;;;;9.41;76.43;95295.88;5096118;28;20439;-88
2023/01/06 04:00:58;;;;;;;10.00;5.73;;;;;;;9.41;76.05;95309.81;5096503;28;20440;-88
2023/01/06 04:03:26;;;;;;;5.03;4.10;;;;;;;9.34;76.58;95302.53;5096317;28;20508;-87
2023/01/06 04:05:54;;;;;;;4.70;3.80;;;;;;;9.29;77.27;95300.25;5096433;28;20436;-88
2023/01/06 04:08:21;;;;;;;8.00;3.77;;;;;;;9.29;76.69;95289.78;5096575;28;20480;-88
2023/01/06 04:10:48;;;;;;;5.40;3.70;;;;;;;9.25;77.03;95310.13;5096162;28;20459;-88
2023/01/06 04:19:58;;;;;;;3.93;3.10;;;;;;;9.22;77.11;95294.59;5094877;28;20427;-87
2023/01/06 04:22:26;;;;;;;5.73;3.93;;;;;;;9.22;76.22;95304.25;5096070;28;20452;-88
2023/01/06 04:24:53;;;;;;;8.80;4.53;;;;;;;9.25;75.55;95304.88;5095456;28;20493;-88
2023/01/06 04:27:20;;;;;;;3.77;3.43;;;;;;;9.26;75.71;95317.03;5096212;28;20490;-88
2023/01/06 04:29:47;;;;;;;3.30;3.00;;;;;;;9.28;75.14;95332.63;5096238;28;20433;-87
2023/01/06 04:32:13;;;;;;;6.27;3.00;;;;;;;9.29;75.35;95344.78;5095833;28;20544;-87
2023/01/06 04:34:40;;;;;;;8.30;4.30;;;;;;;9.33;76.82;95348.84;5095953;28;20949;-88
2023/01/06 04:37:07;;;;;;;4.10;3.70;;;;;;;9.34;74.66;95354.91;5095514;28;20473;-88
2023/01/06 04:39:35;;;;;;;4.73;3.37;;;;;;;9.37;74.50;95354.69;5095449;28;20479;-88
2023/01/06 04:42:02;;;;;;;4.07;2.90;;;;;;;9.36;74.48;95363.50;5095661;28;20850;-88
2023/01/06 04:44:29;;;;;;;5.60;3.90;;;;;;;9.34;74.38;95366.22;5095924;28;20451;-87
2023/01/06 04:46:55;;;;;;;5.07;4.60;;;;;;;9.28;74.53;95349.19;5095522;28;20452;-88
2023/01/06 04:49:22;;;;;;;4.93;3.73;;;;;;;9.23;74.73;95346.03;5095270;28;20468;-88
2023/01/06 04:51:49;;;;;;;5.60;3.70;;;;;;;9.21;75.64;95354.94;5095421;28;21031;-88
2023/01/06 04:54:16;;;;;;;6.43;3.37;;;;;;;9.15;75.51;95361.47;5095489;28;20844;-87
2023/01/06 04:56:44;;;;;;;6.87;3.50;;;;;;;9.16;75.58;95357.91;5095431;28;20440;-88
2023/01/06 04:59:11;;;;;;;3.70;3.10;;;;;;;9.14;75.62;95365.03;5095355;28;20435;-87
2023/01/06 05:01:39;;;;;;;7.63;3.30;;;;;;;9.17;75.41;95375.28;5095612;28;20432;-88
2023/01/06 05:04:07;;;;;;;3.33;3.03;;;;;;;9.19;76.13;95372.53;5094913;28;20447;-88
2023/01/06 05:06:35;;;;;;;4.27;3.90;;;;;;;9.17;75.38;95383.13;5094704;28;20873;-87
2023/01/06 05:09:02;;;;;;;3.80;3.50;;;;;;;9.21;75.90;95387.19;5094751;28;20513;-87
2023/01/06 05:11:29;;;;;;;4.30;3.90;;;;;;;9.21;76.85;95379.34;5094360;28;20483;-88
2023/01/06 05:13:58;;;;;;;2.90;2.70;;;;;;;9.20;75.48;95380.28;5059499;28;20440;-87
2023/01/06 05:16:27;;;;;;;3.30;3.00;;;;;;;9.25;74.95;95391.28;5094925;28;20451;-87
2023/01/06 05:18:55;;;;;;;6.83;4.10;;;;;;;9.23;75.49;95398.41;5094379;28;20497;-87
2023/01/06 05:21:23;;;;;;;4.07;3.72;;;;;;;9.28;76.04;95398.09;5092206;28;20490;-87
2023/01/06 05:23:51;;;;;;;3.93;3.40;;;;;;;9.28;75.14;95406.78;5094824;28;20219;-87
2023/01/06 05:26:20;;;;;;;4.77;3.90;;;;;;;9.32;75.32;95410.03;5094867;28;20853;-89
2023/01/06 05:28:47;;;;;;;5.97;4.37;;;;;;;9.18;75.80;95403.13;5094949;28;20460;-86
2023/01/06 05:31:16;;;;;;;9.23;4.53;;;;;;;9.11;76.30;95406.31;5094978;28;20435;-87
2023/01/06 05:33:43;;;;;;;5.10;4.60;;;;;;;9.06;76.69;95413.66;5094385;28;20436;-83
2023/01/06 05:36:12;;;;;;;5.27;4.20;;;;;;;9.05;76.45;95411.97;5095067;28;20432;-87
2023/01/06 05:38:39;;;;;;;6.90;5.13;;;;;;;9.04;76.90;95408.53;5094950;28;20859;-88
2023/01/06 05:41:09;;;;;;;6.30;5.07;;;;;;;9.06;77.11;95404.00;5094463;28;20995;-86
2023/01/06 05:43:37;;;;;;;5.00;4.00;;;;;;;8.97;77.06;95397.66;5093849;28;21008;-87
2023/01/06 05:46:08;;;;;;;9.43;4.73;;;;;;;8.98;76.75;95404.56;5094149;28;20493;-87
2023/01/06 05:48:37;;;;;;;18.30;6.07;;;;;;;8.96;76.30;95409.06;5094764;28;20447;-88
2023/01/06 05:51:06;;;;;;;9.03;5.30;;;;;;;8.94;75.86;95404.84;5094565;28;20528;-86
2023/01/06 05:53:33;;;;;;;9.90;4.70;;;;;;;8.96;76.01;95413.44;5094706;28;20468;-88
2023/01/06 05:56:01;;;;;;;6.57;5.67;;;;;;;8.94;75.55;95420.56;5094671;28;20969;-90
2023/01/06 05:58:28;;;;;;;6.73;4.60;;;;;;;8.94;75.23;95424.00;5095090;28;20493;-88
2023/01/06 06:00:54;;;;;;;5.30;4.80;;;;;;;8.94;74.28;95412.72;5094769;28;20501;-89
2023/01/06 06:03:21;;;;;;;6.50;5.10;;;;;;;8.92;74.42;95422.44;5094582;28;20489;-89
2023/01/06 06:05:50;;;;;;;10.20;4.97;;;;;;;8.96;73.89;95423.91;5094044;28;20440;-89
2023/01/06 06:08:16;;;;;;;7.30;4.33;;;;;;;8.97;72.87;95415.97;5094383;28;20428;-90
2023/01/06 06:14:05;;;;;;;6.23;3.63;;;;;;;8.94;72.30;95416.16;5090771;28;20490;-89
2023/01/06 06:16:31;;;;;;;10.20;4.00;;;;;;;8.95;72.41;95430.09;5094442;28;20938;-88
2023/01/06 06:18:59;;;;;;;15.60;8.13;;;;;;;8.95;72.11;95430.91;5094399;28;20444;-89
2023/01/06 06:21:28;;;;;;;8.50;4.67;;;;;;;9.00;72.32;95434.09;5094245;28;20995;-88
2023/01/06 06:23:56;;;;;;;5.23;4.20;;;;;;;9.02;71.52;95428.72;5094372;28;20455;-88
2023/01/06 06:26:24;;;;;;;10.03;6.57;;;;;;;9.05;71.82;95425.91;5094369;28;20501;-87
2023/01/06 06:28:51;;;;;;;3.53;3.23;;;;;;;9.06;70.10;95430.19;5075944;28;20497;-87
2023/01/06 06:31:19;;;;;;;5.70;4.00;;;;;;;9.12;70.10;95421.91;5097086;28;20804;-88
2023/01/06 06:33:46;;;;;;;12.47;5.00;;;;;;;9.17;70.29;95427.63;5097731;28;20467;-88
2023/01/06 06:39:36;;;;;;;8.90;4.73;;;;;;;9.38;68.59;95433.16;5096905;28;20823;-88
2023/01/06 06:42:03;;;;;;;4.47;3.10;;;;;;;9.45;67.26;95438.78;5097824;28;20435;-87
2023/01/06 06:44:29;;;;;;;12.77;7.10;;;;;;;9.49;67.78;95445.47;5097461;28;20447;-87
2023/01/06 06:46:57;;;;;;;8.57;4.90;;;;;;;9.53;68.11;95441.69;5097946;28;20917;-87
2023/01/06 06:49:24;;;;;;;10.43;6.60;;;;;;;9.54;67.24;95446.84;5097304;28;20459;-86
2023/01/06 06:51:51;;;;;;;4.90;3.80;;;;;;;9.50;67.65;95445.34;5096929;28;20490;-87
2023/01/06 06:54:18;;;;;;;4.30;3.90;;;;;;;9.52;68.14;95438.22;5097598;28;20447;-87
2023/01/06 06:56:46;;;;;;;6.53;4.73;;;;;;;9.61;68.08;95453.28;5097621;28;20448;-89
2023/01/06 06:59:13;;;;;;;4.63;3.20;;;;;;;9.60;67.58;95445.56;5097188;28;20428;-86
2023/01/06 07:01:40;;;;;;;4.07;2.90;;;;;;;9.61;67.21;95453.28;5095670;28;20876;-86
2023/01/06 07:04:08;;;;;;;5.20;4.23;;;;;;;9.72;67.65;95457.75;5095392;28;20926;-87
2023/01/06 07:06:35;;;;;;;5.80;3.90;;;;;;;9.71;68.48;95447.38;5094840;28;20451;-87
2023/01/06 07:09:02;;;;;;;19.73;4.03;;;;;;;9.79;67.32;95456.34;5095971;28;20451;-87
2023/01/06 07:11:29;;;;;;;7.03;3.20;;;;;;;9.82;68.29;95456.13;5095870;28;20444;-86
2023/01/06 07:13:57;;;;;;;4.33;2.50;;;;;;;9.84;67.68;95458.66;5094917;28;20881;-85
2023/01/06 07:16:25;;;;;;;5.13;3.10;;;;;;;9.91;68.02;95463.34;5095930;28;20437;-85
2023/01/06 07:18:52;;;;;;;3.73;3.10;;;;;;;9.93;68.07;95457.97;5095630;28;20528;-85
2023/01/06 07:21:19;;;;;;;7.47;5.00;;;;;;;9.98;66.96;95476.84;5095761;28;20463;-86
2023/01/06 07:23:46;;;;;;;10.80;4.03;;;;;;;10.04;68.43;95473.75;5060499;28;20444;-86
2023/01/06 07:26:14;;;;;;;4.23;3.20;;;;;;;10.08;66.61;95482.22;5096133;28;20485;-85
2023/01/06 07:28:41;;;;;;;9.33;4.53;;;;;;;10.11;66.30;95480.22;5095522;28;20449;-86
2023/01/06 07:31:09;;;;;;;11.27;3.87;;;;;;;10.05;67.30;95475.44;5094706;28;20504;-86
2023/01/06 07:33:36;;;;;;;5.10;2.50;;;;;;;10.00;66.67;95477.56;5094761;28;20499;-85
2023/01/06 07:36:03;;;;;;;4.17;3.10;;;;;;;9.90;67.46;95474.78;5094054;28;20444;-85
2023/01/06 07:38:30;;;;;;;4.03;2.60;;;;;;;9.85;67.55;95476.91;5093257;28;20437;-88
2023/01/06 07:40:59;;;;;;;3.07;2.33;;;;;;;9.79;67.44;95481.72;5094611;28;20443;-82
2023/01/06 07:43:26;;;;;;;4.20;3.47;;;;;;;9.79;67.79;95492.22;5094183;28;20474;-81
2023/01/06 07:45:56;;;;;;;3.80;3.20;;;;;;;9.88;67.49;95491.56;5095011;28;20495;-81
2023/01/06 07:48:24;;;;;;;3.40;3.10;;;;;;;9.99;67.74;95503.88;5094089;28;20506;-82
2023/01/06 07:50:53;;;;;;;8.40;4.20;;;;;;;10.00;67.68;95510.81;5095133;28;20807;-82
2023/01/06 07:53:35;;;;;;;13.27;8.27;;;;;;;10.00;68.14;95502.94;5095471;28;20966;-81
2023/01/06 07:56:02;;;;;;;10.83;8.30;;;;;;;10.00;68.68;95500.31;5095532;28;20440;-84
2023/01/06 07:58:29;;;;;;;6.73;4.57;;;;;;;10.05;68.25;95498.19;5095162;28;20448;-83
2023/01/06 08:00:56;;;;;;;15.60;9.37;;;;;;;10.09;68.13;95499.63;5094893;28;20441;-87
2023/01/06 08:03:24;;;;;;;8.03;5.60;;;;;;;10.10;67.98;95503.94;5094815;28;20506;-84
2023/01/06 08:05:50;;;;;;;5.87;3.53;;;;;;;10.12;68.39;95512.53;5076021;28;20453;-84
2023/01/06 08:08:17;;;;;;;3.70;3.40;;;;;;;10.15;67.37;95517.56;5094887;28;20438;-84
2023/01/06 08:10:44;;;;;;;4.90;4.10;;;;;;;10.23;67.40;95515.25;5094641;28;20440;-85
2023/01/06 08:13:11;;;;;;;4.50;4.07;;;;;;;10.23;67.61;95516.06;5094787;28;20997;-84
2023/01/06 08:15:38;;;;;;;3.63;3.33;;;;;;;10.19;67.25;95511.16;5094739;28;20524;-84
2023/01/06 08:18:08;;;;;;;3.90;3.30;;;;;;;10.21;68.21;95497.00;5094482;28;20433;-84
2023/01/06 08:20:36;;;;;;;3.70;2.77;;;;;;;10.24;67.21;95509.03;5075482;28;20448;-83
2023/01/06 08:23:03;;;;;;;3.87;3.37;;;;;;;10.26;67.30;95507.16;5075839;28;20441;-85
2023/01/06 08:25:30;;;;;;;4.00;3.40;;;;;;;10.19;66.50;95498.03;5094347;28;20448;-86
2023/01/06 08:27:58;;;;;;;7.60;2.80;;;;;;;10.10;67.06;95517.03;5095116;28;20461;-84
2023/01/06 08:34:05;;;;;;;6.83;3.57;;;;;;;10.20;67.56;95502.31;5094763;28;20464;-85
2023/01/06 08:36:34;;;;;;;6.40;3.77;;;;;;;10.21;66.21;95494.38;5094902;28;20932;-86
2023/01/06 08:39:00;;;;;;;5.70;3.10;;;;;;;10.21;67.41;95498.78;5094054;28;20956;-84
2023/01/06 08:41:27;;;;;;;5.43;2.83;;;;;;;10.16;66.23;95498.25;5093602;28;20426;-85
2023/01/06 08:43:55;;;;;;;5.50;2.60;;;;;;;10.08;66.62;95497.97;5094238;28;20497;-85
2023/01/06 08:46:21;;;;;;;3.43;2.63;;;;;;;10.03;67.44;95498.31;5093702;28;20435;-85
2023/01/06 08:48:49;;;;;;;3.27;2.90;;;;;;;10.03;67.79;95489.59;5094370;28;20942;-86
2023/01/06 08:51:18;;;;;;;4.10;2.70;;;;;;;10.09;68.52;95497.84;5094264;28;20470;-85
2023/01/06 08:53:46;;;;;;;6.90;3.10;;;;;;;10.11;67.53;95479.38;5093474;28;21337;-84
2023/01/06 08:56:14;;;;;;;4.07;3.33;;;;;;;10.08;67.44;95495.34;5094510;28;20434;-85
2023/01/06 08:58:41;;;;;;;3.77;2.70;;;;;;;10.10;67.39;95483.78;5094780;28;20428;-85
2023/01/06 09:04:30;;;;;;;4.20;2.93;;;;;;;10.19;66.98;95503.28;5094301;28;20387;-84
2023/01/06 09:06:57;;;;;;;4.73;2.20;;;;;;;10.10;65.67;95477.72;5094560;28;20895;-86
2023/01/06 09:09:25;;;;;;;3.93;2.43;;;;;;;10.07;65.64;95491.88;5094651;28;20484;-86
2023/01/06 09:11:52;;;;;;;4.33;2.60;;;;;;;10.09;65.45;95482.13;5094229;28;20976;-86
2023/01/06 09:14:19;;;;;;;4.77;3.07;;;;;;;10.12;67.01;95478.44;5094116;28;20982;-86
2023/01/06 09:16:47;;;;;;;2.30;2.10;;;;;;;10.17;65.16;95478.94;5094167;28;20444;-85
2023/01/06 09:19:15;;;;;;;7.63;3.50;;;;;;;10.20;66.09;95482.22;5095491;28;20543;-85
2023/01/06 09:21:42;;;;;;;10.03;3.10;;;;;;;10.30;65.45;95492.00;5094122;28;20532;-85
2023/01/06 09:24:12;;;;;;;2.67;2.47;;;;;;;10.29;64.81;95501.66;5094334;28;20447;-85
2023/01/06 09:26:40;;;;;;;9.40;4.70;;;;;;;10.36;65.10;95488.94;5093883;28;20453;-86
2023/01/06 09:29:10;;;;;;;9.40;2.30;;;;;;;10.35;63.80;95472.34;5093810;28;20486;-84
2023/01/06 09:31:37;;;;;;;4.57;3.07;;;;;;;10.44;65.64;95473.47;5094013;28;20437;-86
2023/01/06 09:34:04;;;;;;;3.97;3.20;;;;;;;10.48;64.80;95490.66;5093166;28;20509;-85
2023/01/06 09:36:31;;;;;;;4.40;2.70;;;;;;;10.61;64.41;95475.66;5073696;28;20436;-88
2023/01/06 09:38:58;;;;;;;3.27;2.87;;;;;;;10.74;64.32;95472.94;5094114;28;20445;-86
2023/01/06 09:41:57;;;;;;;9.23;2.73;;;;;;;10.82;63.85;95474.03;5093874;28;20434;-85
2023/01/06 09:47:52;;;;;;;6.00;2.57;;;;;;;11.07;63.51;95470.34;5050488;28;20551;-85
2023/01/06 09:50:29;;;;;;;3.17;2.77;;;;;;;11.23;61.68;95484.91;5050738;28;20474;-85
2023/01/06 09:53:01;;;;;;;7.40;3.37;;;;;;;11.31;60.80;95454.47;5051403;28;20481;-87
2023/01/06 09:55:35;;;;;;;5.13;2.10;;;;;;;11.39;60.57;95480.16;5051031;28;20452;-85
2023/01/06 09:58:06;;;;;;;3.70;2.90;;;;;;;11.43;62.09;95468.44;5051395;28;20444;-86
2023/01/06 10:00:36;;;;;;;4.47;2.70;;;;;;;11.36;61.92;95467.25;5051160;28;20511;-85
2023/01/06 10:03:05;;;;;;;2.60;2.40;;;;;;;11.45;64.18;95456.00;5051319;28;20468;-86
2023/01/06 10:05:42;;;;;;;7.57;2.83;;;;;;;11.41;63.23;95457.22;5055708;28;20477;-86
2023/01/06 10:08:18;;;;;;;4.20;2.70;;;;;;;11.38;61.02;95473.22;5053492;28;20551;-85
2023/01/06 10:10:52;;;;;;;3.77;2.73;;;;;;;11.38;61.02;95457.44;5054289;28;20475;-85
2023/01/06 10:13:38;;;;;;;4.50;2.87;;;;;;;11.48;60.97;95464.47;5053910;28;20634;-85
2023/01/06 10:16:14;;;;;;;4.97;2.70;;;;;;;11.53;60.67;95466.72;5054151;28;20433;-86
2023/01/06 10:18:52;;;;;;;3.17;1.73;;;;;;;11.67;60.28;95461.22;5006129;28;21075;-87
2023/01/06 10:21:27;;;;;;;7.20;3.20;;;;;;;11.76;59.63;95452.59;5069613;28;20465;-86
2023/01/06 10:27:27;;;;;;;2.83;2.50;;;;;;;11.90;59.16;95440.19;5096242;28;20458;-86
2023/01/06 10:29:56;;;;;;;2.23;2.03;;;;;;;11.89;58.10;95436.72;5097566;28;20439;-85
2023/01/06 10:32:28;;;;;;;7.63;2.80;;;;;;;11.84;58.01;95427.50;5097407;28;20440;-85
2023/01/06 10:34:57;;;;;;;3.93;2.43;;;;;;;11.60;60.05;95412.75;5096744;28;20868;-85
2023/01/06 10:37:30;;;;;;;2.97;2.50;;;;;;;11.66;59.00;95422.75;5097550;28;20448;-85
2023/01/06 10:40:03;;;;;;;3.70;2.50;;;;;;;11.66;58.84;95414.03;5097268;28;20439;-86
2023/01/06 10:42:58;;;;;;;3.03;2.40;;;;;;;11.61;58.27;95409.16;5097333;28;20457;-86
2023/01/06 10:45:32;;;;;;;3.97;2.67;;;;;;;11.59;58.69;95395.31;5091375;28;20788;-85
2023/01/06 10:48:00;;;;;;;3.83;2.53;;;;;;;11.49;58.62;95395.19;5096764;28;20474;-86
2023/01/06 10:50:29;;;;;;;2.80;2.60;;;;;;;11.54;58.67;95381.66;5095693;28;20444;-85
2023/01/06 10:56:18;;;;;;;2.23;2.03;;;;;;;11.74;58.58;95395.84;5096391;28;20843;-87
2023/01/06 10:58:52;;;;;;;3.87;2.50;;;;;;;11.82;61.96;95392.59;5096952;28;20508;-88
2023/01/06 11:01:24;;;;;;;5.33;3.10;;;;;;;11.96;59.47;95394.97;5096899;28;20543;-87
2023/01/06 11:04:18;;;;;;;3.80;3.20;;;;;;;12.03;58.71;95386.44;5096955;28;20465;-89
2023/01/06 11:06:50;;;;;;;3.47;3.00;;;;;;;11.99;59.30;95381.56;5074944;28;20462;-89
2023/01/06 11:09:28;;;;;;;3.13;2.80;;;;;;;11.97;58.43;95389.56;5075223;28;20997;-91
2023/01/06 11:12:11;;;;;;;3.80;2.03;;;;;;;11.98;58.34;95372.81;5074723;28;20543;-87
2023/01/06 11:14:40;;;;;;;4.43;3.60;;;;;;;12.00;57.96;95393.75;5074790;28;20940;-86
2023/01/06 11:17:13;;;;;;;3.20;2.90;;;;;;;12.00;58.08;95377.97;5074072;28;20927;-87
2023/01/06 11:19:41;;;;;;;8.77;4.00;;;;;;;12.06;57.79;95387.97;5074320;28;20531;-89
2023/01/06 11:22:33;;;;;;;8.73;4.80;;;;;;;12.04;57.73;95368.84;5074414;28;20535;-89
2023/01/06 11:25:01;;;;;;;4.30;3.53;;;;;;;12.14;59.01;95387.31;5076214;28;20549;-88
2023/01/06 11:27:28;;;;;;;7.13;2.20;;;;;;;12.20;57.64;95390.31;5097056;28;20477;-88
2023/01/06 11:29:55;;;;;;;4.13;2.57;;;;;;;12.19;57.24;95375.47;5096941;28;20452;-87
2023/01/06 11:32:25;;;;;;;5.60;2.60;;;;;;;12.17;57.32;95392.38;5096779;28;20444;-91
2023/01/06 11:34:55;;;;;;;2.63;2.03;;;;;;;12.19;56.98;95393.91;5095826;28;20571;-88
2023/01/06 11:37:34;;;;;;;6.07;2.30;;;;;;;12.16;56.94;95388.91;5096513;28;20945;-87
2023/01/06 11:40:03;;;;;;;2.60;2.40;;;;;;;12.17;57.84;95390.56;5096758;28;20455;-86
2023/01/06 11:42:30;;;;;;;2.30;2.10;;;;;;;12.21;57.18;95389.34;5096116;28;20437;-88
2023/01/06 11:44:57;;;;;;;3.77;2.30;;;;;;;12.14;57.58;95396.06;5096511;28;20456;-88
2023/01/06 11:47:27;;;;;;;4.63;2.80;;;;;;;12.12;57.22;95391.88;5097019;28;20446;-89
2023/01/06 11:49:56;;;;;;;5.23;2.50;;;;;;;12.04;57.48;95403.03;5096730;28;20490;-89
2023/01/06 11:52:25;;;;;;;4.80;3.03;;;;;;;11.96;57.46;95390.53;5096057;28;21008;-89
2023/01/06 11:55:03;;;;;;;4.47;2.90;;;;;;;11.89;57.93;95412.22;5087469;28;20494;-87
2023/01/06 11:57:40;;;;;;;2.83;2.53;;;;;;;11.89;58.06;95401.69;5087492;28;20945;-89
2023/01/06 12:00:25;;;;;;;3.93;2.77;;;;;;;11.89;58.70;95396.44;5087758;28;20439;-92
2023/01/06 12:03:06;;;;;;;2.63;2.40;;;;;;;11.84;58.80;95404.66;5088007;28;20458;-89
2023/01/06 12:05:38;;;;;;;5.43;2.73;;;;;;;11.83;60.16;95386.38;5096315;28;21492;-87
2023/01/06 12:08:11;;;;;;;3.57;3.27;;;;;;;11.82;58.63;95405.75;5096272;28;20478;-87
2023/01/06 12:10:43;;;;;;;3.30;2.93;;;;;;;11.72;59.60;95393.34;5095207;28;20444;-87
2023/01/06 12:13:13;;;;;;;4.80;2.40;;;;;;;11.73;58.75;95387.13;5095479;28;20450;-89
2023/01/06 12:15:44;;;;;;;2.60;2.13;;;;;;;11.70;59.00;95391.78;5095254;28;20882;-87
2023/01/06 12:18:16;;;;;;;2.50;2.30;;;;;;;11.69;58.71;95390.97;5094980;28;21014;-87
2023/01/06 12:20:47;;;;;;;2.57;2.37;;;;;;;11.65;58.35;95400.06;5094713;28;20459;-88
2023/01/06 12:23:20;;;;;;;5.00;3.67;;;;;;;11.62;58.85;95392.41;5094749;28;20450;-86
2023/01/06 12:25:51;;;;;;;4.17;2.50;;;;;;;11.60;58.82;95399.59;5094867;28;20454;-88
2023/01/06 12:28:22;;;;;;;4.30;2.63;;;;;;;11.57;59.01;95407.72;5093680;28;20450;-88
2023/01/06 12:30:55;;;;;;;3.93;3.60;;;;;;;11.58;58.92;95408.56;5076155;28;20443;-88
2023/01/06 12:33:27;;;;;;;4.10;2.10;;;;;;;11.45;60.12;95403.44;5094587;28;20469;-88
2023/01/06 12:35:59;;;;;;;2.53;2.33;;;;;;;11.43;60.58;95400.09;5094346;28;20537;-87